Time;durP1;ratioP1;P1;durP2;ratioP2;P2;SDS_P1;SDS_P2;PMS_P1;PMS_P2;Temp;Humidity;BMP_temperature;BMP_pressure;BME280_temperature;BME280_humidity;BME280_pressure;Samples;Min_cycle;Max_cycle;Signal;HPM_P1;HPM_P2
2022/10/02 00:02:31;;;;;;;1.05;0.90;;;;;;;15.50;94.76;98546.89;1662571;86;20997;-82
2022/10/02 00:05:12;;;;;;;1.10;0.88;;;;;;;15.55;94.00;98535.31;1657614;86;21017;-84
2022/10/02 00:07:55;;;;;;;1.37;1.02;;;;;;;15.55;94.09;98543.17;1659701;86;21041;-79
2022/10/02 00:10:43;;;;;;;5.22;1.00;;;;;;;15.60;93.28;98543.30;1665406;85;21010;-82
2022/10/02 00:13:40;;;;;;;4.62;1.07;;;;;;;15.57;93.45;98530.36;1651960;86;21475;-82
2022/10/02 00:16:25;;;;;;;2.70;0.93;;;;;;;15.56;94.13;98536.55;1640876;87;21046;-82
2022/10/02 00:18:55;;;;;;;1.55;0.90;;;;;;;15.56;93.83;98530.44;1643555;87;21072;-81
2022/10/02 00:21:48;;;;;;;2.05;1.00;;;;;;;15.55;94.59;98537.46;1641940;87;20995;-82
2022/10/02 00:24:21;;;;;;;1.85;1.07;;;;;;;15.57;93.38;98537.38;1644056;87;21499;-82
2022/10/02 00:27:06;;;;;;;2.80;1.20;;;;;;;15.56;93.80;98535.67;1638358;87;21027;-82
2022/10/02 00:29:47;;;;;;;3.12;1.25;;;;;;;15.53;93.84;98534.55;1639130;87;21035;-84
2022/10/02 00:32:32;;;;;;;8.63;1.30;;;;;;;15.51;94.35;98534.62;1637680;87;21043;-81
2022/10/02 00:35:20;;;;;;;2.80;1.00;;;;;;;15.50;94.53;98531.64;1646284;87;21066;-81
2022/10/02 00:38:08;;;;;;;2.83;0.95;;;;;;;15.53;93.86;98541.94;1629486;87;21060;-80
2022/10/02 00:41:00;;;;;;;1.92;1.17;;;;;;;15.55;94.19;98540.55;1645326;87;21023;-81
2022/10/02 00:43:57;;;;;;;5.67;2.50;;;;;;;15.50;95.14;98541.65;1673083;86;21022;-85
2022/10/02 00:47:03;;;;;;;1.70;1.10;;;;;;;15.53;95.03;98544.55;1673254;84;21046;-81
2022/10/02 00:49:50;;;;;;;2.67;1.20;;;;;;;15.55;94.45;98548.41;1660885;86;21093;-80
2022/10/02 00:52:44;;;;;;;2.35;1.22;;;;;;;15.57;94.01;98561.80;1658929;86;21038;-84
2022/10/02 00:55:34;;;;;;;3.22;1.27;;;;;;;15.53;94.97;98572.06;1657687;85;21039;-84
2022/10/02 00:58:13;;;;;;;4.92;1.35;;;;;;;15.53;94.46;98564.67;1658946;86;21541;-84
2022/10/02 01:00:46;;;;;;;2.70;1.20;;;;;;;15.53;94.73;98569.92;1655556;86;21017;-79
2022/10/02 01:03:23;;;;;;;6.25;1.62;;;;;;;15.53;94.13;98573.38;1659157;85;21058;-79
2022/10/02 01:05:51;;;;;;;3.80;1.50;;;;;;;15.55;93.99;98570.68;1662666;86;21026;-80
2022/10/02 01:08:18;;;;;;;8.08;1.80;;;;;;;15.51;94.73;98564.75;1647457;87;21517;-78
2022/10/02 01:10:47;;;;;;;2.95;1.25;;;;;;;15.55;94.34;98566.75;1613808;87;21079;-81
2022/10/02 01:13:15;;;;;;;3.85;1.50;;;;;;;15.47;95.94;98570.61;1641105;87;21520;-82
2022/10/02 01:15:55;;;;;;;2.98;1.35;;;;;;;15.49;95.00;98574.47;1657016;85;20952;-79
2022/10/02 01:18:22;;;;;;;3.02;1.50;;;;;;;15.46;95.07;98568.10;1607106;89;21016;-81
2022/10/02 01:20:54;;;;;;;2.70;1.40;;;;;;;15.39;96.34;98567.56;1606610;88;21517;-81
2022/10/02 01:23:33;;;;;;;2.85;1.42;;;;;;;15.42;95.29;98564.80;1647178;87;21044;-81
2022/10/02 01:26:01;;;;;;;2.08;1.30;;;;;;;15.39;95.56;98566.25;1631679;88;21502;-82
2022/10/02 01:28:29;;;;;;;3.42;1.57;;;;;;;15.36;95.87;98546.79;1630120;88;21506;-82
2022/10/02 01:31:06;;;;;;;4.28;1.40;;;;;;;15.37;95.76;98527.98;1631443;88;21017;-80
2022/10/02 01:33:34;;;;;;;3.52;1.50;;;;;;;15.39;95.73;98539.22;1633486;88;21014;-81
2022/10/02 01:36:02;;;;;;;4.15;1.37;;;;;;;15.36;95.41;98549.84;1607771;88;21555;-83
2022/10/02 01:38:30;;;;;;;2.47;1.17;;;;;;;15.36;95.01;98557.70;1629166;88;21002;-83
2022/10/02 01:40:58;;;;;;;3.35;1.20;;;;;;;15.35;95.13;98571.75;1633687;88;21067;-81
2022/10/02 01:43:33;;;;;;;4.05;1.40;;;;;;;15.36;94.48;98578.22;1634204;88;20990;-84
2022/10/02 01:46:31;;;;;;;5.12;1.40;;;;;;;15.33;94.48;98586.22;1634086;87;21081;-84
2022/10/02 01:49:16;;;;;;;2.70;1.30;;;;;;;15.34;94.28;98579.20;1633867;88;20983;-86
2022/10/02 01:52:08;;;;;;;7.83;1.62;;;;;;;15.26;94.51;98578.30;1632004;88;21022;-87
2022/10/02 01:54:52;;;;;;;3.98;1.12;;;;;;;15.22;94.65;98583.31;1635309;88;21074;-87
2022/10/02 01:57:50;;;;;;;2.45;1.30;;;;;;;15.20;94.20;98594.33;1632679;88;21041;-85
2022/10/02 02:00:23;;;;;;;2.92;1.20;;;;;;;15.09;94.60;98590.97;1634207;88;21534;-83
2022/10/02 02:03:02;;;;;;;1.95;1.30;;;;;;;15.07;94.23;98594.97;1634227;87;21075;-81
2022/10/02 02:05:41;;;;;;;2.12;1.10;;;;;;;15.04;94.13;98604.74;1621526;88;21045;-82
2022/10/02 02:08:32;;;;;;;1.67;1.10;;;;;;;15.04;93.78;98609.98;1630317;88;21014;-85
2022/10/02 02:11:19;;;;;;;2.47;1.50;;;;;;;15.02;93.46;98603.97;1582196;91;21054;-83
2022/10/02 02:14:06;;;;;;;2.77;1.20;;;;;;;15.02;93.03;98618.38;1580456;89;21067;-81
2022/10/02 02:16:44;;;;;;;1.57;1.00;;;;;;;14.95;92.88;98623.08;1614702;88;21945;-83
2022/10/02 02:19:32;;;;;;;3.47;1.40;;;;;;;14.94;92.71;98639.73;1626951;88;20994;-81
2022/10/02 02:22:11;;;;;;;2.05;1.20;;;;;;;14.90;92.61;98646.01;1631307;88;21000;-82
2022/10/02 02:24:55;;;;;;;2.17;1.20;;;;;;;14.87;92.30;98653.56;1629408;87;21007;-79
2022/10/02 02:27:30;;;;;;;2.90;1.20;;;;;;;14.85;91.78;98652.80;1608700;88;21027;-79
2022/10/02 02:30:03;;;;;;;2.20;1.20;;;;;;;14.80;91.13;98649.58;1626297;88;21543;-81
2022/10/02 02:32:35;;;;;;;2.95;1.07;;;;;;;14.80;90.72;98648.70;1632901;88;21027;-81
2022/10/02 02:35:17;;;;;;;2.77;1.10;;;;;;;14.78;90.40;98650.11;1625903;88;20995;-81
2022/10/02 02:37:48;;;;;;;3.12;1.10;;;;;;;14.74;90.46;98649.84;1619116;88;21514;-84
2022/10/02 02:40:21;;;;;;;1.67;1.10;;;;;;;14.71;90.67;98661.79;1635476;88;21070;-83
2022/10/02 02:43:08;;;;;;;5.15;1.50;;;;;;;14.70;90.77;98674.47;1629756;88;21018;-83
2022/10/02 02:45:43;;;;;;;1.95;1.40;;;;;;;14.68;90.85;98685.47;1630578;86;21074;-83
2022/10/02 02:48:25;;;;;;;3.47;1.65;;;;;;;14.63;91.25;98691.41;1623606;88;21030;-84
2022/10/02 02:51:01;;;;;;;4.53;1.52;;;;;;;14.57;91.60;98693.85;1631667;88;21045;-81
2022/10/02 02:53:51;;;;;;;3.70;1.70;;;;;;;14.57;91.97;98703.47;1623565;88;21481;-83
2022/10/02 02:56:20;;;;;;;4.85;1.42;;;;;;;14.57;92.22;98707.39;1632809;88;21046;-81
2022/10/02 02:59:11;;;;;;;3.75;1.72;;;;;;;14.48;93.32;98712.11;1623684;88;21046;-80
2022/10/02 03:01:40;;;;;;;2.87;1.75;;;;;;;14.46;93.18;98707.42;1632031;87;21051;-82
2022/10/02 03:04:14;;;;;;;4.10;1.40;;;;;;;14.45;93.27;98705.70;1628593;88;20995;-82
2022/10/02 03:06:45;;;;;;;2.80;1.55;;;;;;;14.40;94.31;98719.91;1631340;88;21066;-82
2022/10/02 03:09:17;;;;;;;4.17;1.45;;;;;;;14.35;94.14;98726.67;1601660;88;21550;-81
2022/10/02 03:12:17;;;;;;;2.35;1.40;;;;;;;14.32;93.74;98733.34;1632631;88;21510;-82
2022/10/02 03:15:27;;;;;;;4.05;2.02;;;;;;;14.32;93.07;98744.67;1632366;88;21017;-82
2022/10/02 03:18:12;;;;;;;3.40;1.37;;;;;;;14.28;93.02;98747.47;1618867;87;21027;-84
2022/10/02 03:20:51;;;;;;;5.95;1.80;;;;;;;14.24;92.38;98744.61;1631531;87;21034;-82
2022/10/02 03:23:39;;;;;;;3.10;1.70;;;;;;;14.20;92.21;98736.05;1632033;87;21499;-84
2022/10/02 03:26:20;;;;;;;2.47;1.65;;;;;;;14.11;92.25;98728.66;1616804;88;21062;-85
2022/10/02 03:28:53;;;;;;;3.55;2.00;;;;;;;14.08;92.30;98724.85;1598613;88;21055;-82
2022/10/02 03:31:24;;;;;;;4.25;2.00;;;;;;;14.03;92.37;98720.31;1654005;86;21031;-82
2022/10/02 03:33:52;;;;;;;2.52;1.62;;;;;;;14.01;92.39;98727.38;1680350;85;21059;-80
2022/10/02 03:36:23;;;;;;;3.83;1.87;;;;;;;14.00;92.06;98733.50;1615721;88;21033;-83
2022/10/02 03:38:54;;;;;;;6.12;1.75;;;;;;;14.01;91.72;98733.91;1624056;87;21074;-81
2022/10/02 03:41:21;;;;;;;3.33;1.62;;;;;;;13.96;91.75;98744.55;1640396;87;20980;-82
2022/10/02 03:43:49;;;;;;;2.98;1.70;;;;;;;13.96;91.38;98748.94;1630025;87;21056;-84
2022/10/02 03:46:16;;;;;;;4.83;1.70;;;;;;;13.88;91.58;98751.87;1630093;87;21058;-85
2022/10/02 03:48:44;;;;;;;3.15;1.82;;;;;;;13.82;91.66;98754.77;1626132;87;21042;-85
2022/10/02 03:51:11;;;;;;;2.92;1.80;;;;;;;13.81;91.34;98754.39;1669765;86;21005;-83
2022/10/02 03:53:41;;;;;;;8.00;2.10;;;;;;;13.76;91.41;98754.57;1680549;85;21069;-84
2022/10/02 03:56:23;;;;;;;4.40;2.25;;;;;;;13.73;91.20;98768.63;1681456;85;20950;-80
2022/10/02 03:58:54;;;;;;;3.75;1.67;;;;;;;13.72;91.15;98769.98;1684191;85;21041;-83
2022/10/02 04:01:34;;;;;;;4.42;2.22;;;;;;;13.69;90.98;98778.81;1683762;85;21006;-83
2022/10/02 04:04:10;;;;;;;2.62;1.60;;;;;;;13.62;91.20;98785.20;1682168;85;21560;-84
2022/10/02 04:07:06;;;;;;;5.42;2.05;;;;;;;13.59;91.00;98785.78;1667438;85;21585;-85
2022/10/02 04:09:45;;;;;;;4.50;1.80;;;;;;;13.58;90.58;98798.00;1664509;86;21663;-84
2022/10/02 04:12:24;;;;;;;4.92;1.98;;;;;;;13.50;90.50;98802.23;1648905;85;20977;-83
2022/10/02 04:15:06;;;;;;;6.62;1.70;;;;;;;13.46;89.64;98800.67;1672581;85;21129;-82
2022/10/02 04:17:45;;;;;;;5.83;1.87;;;;;;;13.44;89.46;98797.27;1687520;85;20982;-82
2022/10/02 04:20:27;;;;;;;4.85;2.30;;;;;;;13.41;89.18;98801.77;1681344;85;21009;-84
2022/10/02 04:23:00;;;;;;;4.05;2.15;;;;;;;13.34;89.41;98806.40;1671725;85;21538;-85
2022/10/02 04:25:35;;;;;;;7.30;1.72;;;;;;;13.29;89.95;98814.43;1685273;85;20987;-82
2022/10/02 04:28:16;;;;;;;3.60;2.02;;;;;;;13.21;90.48;98819.08;1678203;85;21509;-83
2022/10/02 04:30:43;;;;;;;5.92;2.20;;;;;;;13.22;90.53;98826.45;1675737;84;20979;-84
2022/10/02 04:33:18;;;;;;;13.38;2.30;;;;;;;13.16;90.88;98840.59;1641896;87;20959;-82
2022/10/02 04:35:59;;;;;;;4.85;2.50;;;;;;;13.18;90.84;98853.59;1650149;86;21068;-83
2022/10/02 04:39:04;;;;;;;4.00;2.02;;;;;;;13.12;91.35;98855.98;1689520;84;20949;-83
2022/10/02 04:41:53;;;;;;;4.67;2.10;;;;;;;13.10;91.15;98866.94;1684555;84;20978;-81
2022/10/02 04:44:35;;;;;;;3.58;2.20;;;;;;;13.11;90.91;98872.53;1686134;85;21077;-85
2022/10/02 04:47:23;;;;;;;5.60;2.27;;;;;;;13.11;91.03;98882.98;1676916;84;21137;-82
2022/10/02 04:50:02;;;;;;;4.47;2.33;;;;;;;13.12;90.96;98887.30;1677045;84;20953;-83
2022/10/02 04:52:44;;;;;;;6.83;2.67;;;;;;;13.07;91.09;98892.70;1679002;84;21570;-83
2022/10/02 04:55:52;;;;;;;6.62;2.37;;;;;;;13.09;91.10;98903.06;1693996;84;20968;-84
2022/10/02 04:58:37;;;;;;;2.87;2.00;;;;;;;13.10;91.14;98904.78;1679523;84;21083;-82
2022/10/02 05:01:16;;;;;;;5.35;2.30;;;;;;;13.11;91.41;98911.69;1682313;85;21537;-82
2022/10/02 05:03:55;;;;;;;6.60;2.67;;;;;;;13.14;91.42;98907.66;1685583;85;20989;-85
2022/10/02 05:06:52;;;;;;;4.05;1.82;;;;;;;13.17;91.87;98916.70;1695193;84;21000;-84
2022/10/02 05:09:36;;;;;;;8.40;2.60;;;;;;;13.26;91.26;98922.00;1634110;87;21051;-84
2022/10/02 05:12:25;;;;;;;3.92;2.42;;;;;;;13.32;91.13;98923.95;1650123;87;21013;-83
2022/10/02 05:15:34;;;;;;;6.95;2.45;;;;;;;13.35;91.14;98928.65;1634269;87;21107;-85
2022/10/02 05:18:45;;;;;;;4.65;2.35;;;;;;;13.38;91.15;98925.94;1609375;89;21003;-82
2022/10/02 05:21:30;;;;;;;8.08;2.37;;;;;;;13.42;91.09;98932.27;1602229;89;21019;-82
2022/10/02 05:24:35;;;;;;;7.83;2.45;;;;;;;13.49;90.68;98936.81;1608451;89;21519;-82
2022/10/02 05:27:38;;;;;;;4.60;2.62;;;;;;;13.50;90.57;98943.27;1606722;89;21041;-84
2022/10/02 05:30:16;;;;;;;4.05;2.30;;;;;;;13.51;89.95;98942.37;1606256;89;21043;-84
2022/10/02 05:33:04;;;;;;;6.33;2.30;;;;;;;13.59;89.88;98951.64;1612156;88;21055;-82
2022/10/02 05:35:46;;;;;;;4.35;2.20;;;;;;;13.61;89.90;98950.69;1600714;89;21036;-83
2022/10/02 05:38:57;;;;;;;5.17;2.83;;;;;;;13.62;89.64;98952.38;1612064;88;21559;-80
2022/10/02 05:41:41;;;;;;;3.22;2.08;;;;;;;13.59;89.60;98960.35;1617115;88;21552;-84
2022/10/02 05:44:36;;;;;;;4.92;2.65;;;;;;;13.64;89.41;98961.00;1613704;89;20999;-82
2022/10/02 05:47:11;;;;;;;4.22;2.22;;;;;;;13.69;89.00;98973.91;1616625;89;21673;-82
2022/10/02 05:49:52;;;;;;;4.78;2.60;;;;;;;13.69;88.60;98974.74;1616185;89;21007;-82
2022/10/02 05:52:30;;;;;;;3.87;2.52;;;;;;;13.80;88.22;98976.08;1600615;89;21083;-85
2022/10/02 05:55:41;;;;;;;4.75;2.42;;;;;;;13.78;87.79;98968.75;1612422;89;21605;-82
2022/10/02 05:58:30;;;;;;;3.60;2.33;;;;;;;13.84;87.63;98984.18;1600020;89;21491;-82
2022/10/02 06:01:09;;;;;;;4.67;2.52;;;;;;;13.85;86.98;98992.43;1612490;89;21044;-83
2022/10/02 06:03:51;;;;;;;3.83;2.45;;;;;;;13.91;87.17;98993.48;1618553;89;21047;-82
2022/10/02 06:06:39;;;;;;;3.85;2.12;;;;;;;13.97;86.41;98997.16;1618983;89;21039;-82
2022/10/02 06:09:37;;;;;;;3.60;2.37;;;;;;;13.98;85.28;99004.07;1619917;89;21000;-87
2022/10/02 06:12:25;;;;;;;8.30;2.20;;;;;;;14.08;86.07;99013.23;1616563;89;21052;-85
2022/10/02 06:15:06;;;;;;;12.78;2.37;;;;;;;14.08;84.75;99009.31;1633414;87;20986;-86
2022/10/02 06:17:41;;;;;;;4.92;2.40;;;;;;;14.16;85.43;99002.47;1637907;87;21022;-84
2022/10/02 06:20:20;;;;;;;6.35;2.62;;;;;;;14.18;84.62;99005.87;1672867;86;20947;-85
2022/10/02 06:22:56;;;;;;;8.95;2.10;;;;;;;14.19;84.89;99005.44;1640719;87;21010;-83
2022/10/02 06:25:34;;;;;;;5.22;2.00;;;;;;;14.21;84.36;99002.30;1647753;87;21527;-82
2022/10/02 06:28:16;;;;;;;3.87;2.20;;;;;;;14.17;83.18;99005.95;1650033;86;21510;-84
2022/10/02 06:30:52;;;;;;;6.12;2.12;;;;;;;14.20;83.26;98997.97;1652307;87;21062;-82
2022/10/02 06:33:25;;;;;;;3.83;2.30;;;;;;;14.24;83.85;99000.84;1650882;87;21086;-84
2022/10/02 06:36:07;;;;;;;3.92;2.33;;;;;;;14.27;83.55;99004.66;1654084;85;21480;-85
2022/10/02 06:38:57;;;;;;;4.90;2.67;;;;;;;14.18;82.18;99015.48;1631210;87;21473;-83
2022/10/02 06:41:46;;;;;;;7.90;2.20;;;;;;;14.18;83.03;99015.48;1644825;87;20967;-85
2022/10/02 06:44:31;;;;;;;7.10;2.17;;;;;;;14.20;83.11;99017.58;1654209;86;21110;-82
2022/10/02 06:47:07;;;;;;;3.92;2.30;;;;;;;14.16;82.89;99021.23;1652070;85;21090;-82
2022/10/02 06:50:11;;;;;;;8.68;2.67;;;;;;;14.16;83.21;99023.84;1645196;86;21019;-81
2022/10/02 06:52:56;;;;;;;3.83;2.30;;;;;;;14.13;83.04;99023.06;1653565;87;21078;-84
2022/10/02 06:56:00;;;;;;;5.55;1.95;;;;;;;14.11;82.59;99030.58;1672162;85;21009;-85
2022/10/02 06:58:35;;;;;;;3.90;2.15;;;;;;;14.13;83.11;99032.67;1566202;90;21034;-85
2022/10/02 07:01:17;;;;;;;3.62;1.85;;;;;;;14.14;82.26;99038.28;1595860;89;21592;-85
2022/10/02 07:04:05;;;;;;;4.60;2.20;;;;;;;14.21;82.73;99036.29;1630546;86;21038;-84
2022/10/02 07:06:59;;;;;;;5.55;1.75;;;;;;;14.20;82.29;99033.27;1659101;86;21527;-82
2022/10/02 07:09:35;;;;;;;2.62;1.50;;;;;;;14.30;81.53;99028.05;1667239;86;21053;-83
2022/10/02 07:12:48;;;;;;;4.15;2.20;;;;;;;14.28;81.17;99037.28;1672678;86;21474;-82
2022/10/02 07:15:36;;;;;;;3.42;1.82;;;;;;;14.30;80.25;99035.45;1662876;86;21557;-80
2022/10/02 07:18:24;;;;;;;3.65;1.87;;;;;;;14.33;80.21;99036.62;1677149;85;21017;-82
2022/10/02 07:21:21;;;;;;;3.10;1.70;;;;;;;14.39;80.69;99039.91;1676797;85;21082;-83
2022/10/02 07:24:15;;;;;;;3.02;1.72;;;;;;;14.44;79.37;99052.32;1681220;85;21573;-81
2022/10/02 07:27:29;;;;;;;4.37;2.00;;;;;;;14.50;79.86;99055.55;1653918;86;21019;-84
2022/10/02 07:30:05;;;;;;;3.05;1.57;;;;;;;14.56;78.31;99078.42;1666963;86;21025;-83
2022/10/02 07:32:41;;;;;;;4.42;1.72;;;;;;;14.65;78.88;99075.47;1673769;86;20978;-80
2022/10/02 07:35:33;;;;;;;5.55;1.62;;;;;;;14.69;78.91;99078.35;1663872;86;21066;-82
2022/10/02 07:38:18;;;;;;;3.80;1.92;;;;;;;14.78;79.00;99077.97;1659313;86;21010;-82
2022/10/02 07:41:12;;;;;;;2.52;1.42;;;;;;;14.87;78.52;99084.10;1659607;86;21050;-83
2022/10/02 07:43:43;;;;;;;;;;;;;;;14.96;75.68;99088.55;1669303;86;21038;-79
2022/10/02 07:46:36;;;;;;;5.00;1.90;;;;;;;14.97;75.25;99096.81;1663290;86;20129;-80
2022/10/02 07:49:17;;;;;;;3.45;1.60;;;;;;;14.98;76.20;99094.13;1664350;85;21677;-82
2022/10/02 07:51:50;;;;;;;1.98;1.30;;;;;;;15.00;76.39;99097.53;1661993;86;20982;-81
2022/10/02 07:54:54;;;;;;;2.02;1.20;;;;;;;15.04;74.14;99100.84;1668515;84;21085;-81
2022/10/02 07:57:27;;;;;;;4.43;1.30;;;;;;;15.11;74.60;99093.13;1661474;85;20978;-82
2022/10/02 08:00:06;;;;;;;2.08;1.10;;;;;;;15.18;73.46;99094.57;1680944;85;21393;-84
2022/10/02 08:02:49;;;;;;;2.92;1.27;;;;;;;15.22;74.11;99087.41;1619844;87;20982;-83
2022/10/02 08:05:22;;;;;;;2.10;1.20;;;;;;;15.28;72.59;99088.47;1637709;87;21006;-80
2022/10/02 08:07:55;;;;;;;1.45;1.05;;;;;;;15.30;73.75;99094.02;1633452;86;21033;-83
2022/10/02 08:10:34;;;;;;;1.60;1.10;;;;;;;15.36;71.37;99088.97;1640171;87;21050;-83
2022/10/02 08:13:14;;;;;;;2.40;1.07;;;;;;;15.36;70.00;99082.42;1633858;86;21019;-80
2022/10/02 08:15:46;;;;;;;3.02;1.10;;;;;;;15.33;66.37;99088.26;1646534;86;21078;-79
2022/10/02 08:18:38;;;;;;;1.40;0.93;;;;;;;15.37;64.23;99081.49;1643149;86;21070;-88
2022/10/02 08:21:14;;;;;;;2.00;0.90;;;;;;;15.31;62.90;99086.54;1635324;87;21023;-82
2022/10/02 08:24:02;;;;;;;1.00;0.80;;;;;;;15.28;63.20;99083.23;1643266;86;21522;-85
2022/10/02 08:26:45;;;;;;;2.05;1.07;;;;;;;15.29;64.81;99083.61;1637559;87;21083;-83
2022/10/02 08:29:40;;;;;;;2.02;1.22;;;;;;;15.28;64.29;99095.86;1638101;87;21543;-81
2022/10/02 08:32:13;;;;;;;1.77;0.95;;;;;;;15.36;66.33;99084.17;1646989;87;21038;-82
2022/10/02 08:34:42;;;;;;;1.47;1.10;;;;;;;15.32;64.30;99087.41;1639356;87;20999;-83
2022/10/02 08:37:33;;;;;;;1.82;0.90;;;;;;;15.32;64.30;99087.41;1644922;87;21051;-82
2022/10/02 08:40:21;;;;;;;5.30;1.40;;;;;;;15.35;63.62;99093.81;1644166;87;21073;-82
2022/10/02 08:43:34;;;;;;;1.60;1.00;;;;;;;15.40;63.84;99097.52;1651629;85;21000;-81
2022/10/02 08:46:25;;;;;;;2.17;1.10;;;;;;;15.46;64.40;99083.70;1655578;86;21038;-82
2022/10/02 08:49:38;;;;;;;2.65;1.10;;;;;;;15.58;63.73;99098.02;1652924;86;21592;-83
2022/10/02 08:52:27;;;;;;;1.97;1.27;;;;;;;15.69;62.09;99080.48;1654804;86;21022;-80
2022/10/02 08:55:27;;;;;;;4.42;1.20;;;;;;;15.80;62.11;99090.05;1629502;87;21613;-84
2022/10/02 08:58:11;;;;;;;3.35;1.10;;;;;;;15.87;61.82;99088.83;1643978;87;21050;-84
2022/10/02 09:01:03;;;;;;;1.22;0.90;;;;;;;15.94;63.20;99084.63;1636852;87;21040;-83
2022/10/02 09:04:12;;;;;;;1.37;1.10;;;;;;;15.91;62.03;99080.36;1626756;87;21015;-83
2022/10/02 09:07:24;;;;;;;1.70;1.10;;;;;;;15.91;61.29;99071.19;1640583;87;20990;-86
2022/10/02 09:10:21;;;;;;;1.75;0.98;;;;;;;15.97;62.30;99085.31;1617178;88;21073;-84
2022/10/02 09:13:26;;;;;;;2.70;1.32;;;;;;;16.07;62.13;99093.13;1599461;88;21504;-82
2022/10/02 09:16:11;;;;;;;1.40;1.02;;;;;;;16.23;62.01;99085.84;1628593;87;21070;-81
2022/10/02 09:19:03;;;;;;;2.65;1.00;;;;;;;16.24;59.80;99087.09;1618796;88;21009;-80
2022/10/02 09:21:54;;;;;;;2.75;1.00;;;;;;;16.29;60.94;99078.55;1625242;87;21010;-79
2022/10/02 09:24:51;;;;;;;3.75;1.12;;;;;;;16.33;59.68;99077.06;1613194;88;21019;-81
2022/10/02 09:28:02;;;;;;;3.55;1.30;;;;;;;16.38;59.96;99085.57;1606617;88;21013;-82
2022/10/02 09:31:21;;;;;;;2.42;1.30;;;;;;;16.44;58.76;99097.08;1629364;87;21540;-84
2022/10/02 09:34:14;;;;;;;3.35;1.17;;;;;;;16.54;59.39;99103.56;1628051;88;20983;-83
2022/10/02 09:37:15;;;;;;;1.65;1.05;;;;;;;16.56;59.42;99103.50;1624002;87;21022;-82
2022/10/02 09:40:09;;;;;;;1.27;1.00;;;;;;;16.55;58.54;99089.97;1631551;88;21017;-84
2022/10/02 09:43:10;;;;;;;1.50;0.93;;;;;;;16.61;58.13;99097.09;1630620;87;21024;-84
2022/10/02 09:46:10;;;;;;;2.33;1.10;;;;;;;16.68;58.09;99106.81;1629968;88;21074;-83
2022/10/02 09:49:18;;;;;;;2.20;1.20;;;;;;;16.72;58.91;99099.17;1625691;88;21034;-82
2022/10/02 09:52:09;;;;;;;3.70;1.42;;;;;;;16.76;57.20;99109.06;1647958;85;21043;-82
2022/10/02 09:55:03;;;;;;;3.10;1.27;;;;;;;16.89;58.53;99094.40;1669895;84;21055;-79
2022/10/02 09:57:45;;;;;;;1.35;1.07;;;;;;;16.91;58.43;99099.14;1662157;86;21081;-81
2022/10/02 10:00:50;;;;;;;2.67;1.10;;;;;;;16.90;59.32;99096.95;1668898;86;21062;-81
2022/10/02 10:03:59;;;;;;;2.62;1.40;;;;;;;16.89;56.68;99099.21;1656601;86;20990;-81
2022/10/02 10:06:59;;;;;;;6.35;1.27;;;;;;;17.00;58.18;99100.44;1671488;86;21015;-80
2022/10/02 10:09:41;;;;;;;1.60;0.93;;;;;;;17.06;58.07;99096.17;1666880;85;20994;-80
2022/10/02 10:12:59;;;;;;;1.67;1.02;;;;;;;17.14;57.56;99088.74;1672604;86;21551;-81
2022/10/02 10:16:10;;;;;;;5.62;1.25;;;;;;;17.27;57.05;99103.42;1670351;86;21039;-83
2022/10/02 10:19:21;;;;;;;3.77;1.20;;;;;;;17.36;57.13;99096.81;1661095;86;21032;-82
2022/10/02 10:22:01;;;;;;;2.25;1.30;;;;;;;17.23;56.89;99101.85;1679891;85;20969;-81
2022/10/02 10:24:55;;;;;;;6.80;2.15;;;;;;;17.30;57.91;99107.18;1667136;85;21019;-81
2022/10/02 10:28:00;;;;;;;5.92;1.77;;;;;;;17.40;57.68;99102.29;1673247;86;21002;-80
2022/10/02 10:30:38;;;;;;;7.05;2.90;;;;;;;17.38;57.07;99112.03;1668543;86;21042;-79
2022/10/02 10:33:40;;;;;;;6.47;2.67;;;;;;;17.43;57.71;99104.77;1677134;85;20977;-83
2022/10/02 10:39:50;;;;;;;4.95;2.17;;;;;;;17.76;54.94;99110.45;1683090;85;20984;-80
2022/10/02 10:42:41;;;;;;;5.05;1.60;;;;;;;17.72;56.87;99112.39;1672008;85;20974;-80
2022/10/02 10:45:27;;;;;;;2.10;1.10;;;;;;;17.87;57.04;99096.28;1646903;84;21051;-82
2022/10/02 10:48:18;;;;;;;1.67;1.10;;;;;;;18.01;56.01;99100.31;1669294;85;20994;-83
2022/10/02 10:51:13;;;;;;;2.25;1.20;;;;;;;17.98;54.22;99105.73;1668603;86;20998;-80
2022/10/02 10:53:55;;;;;;;2.40;1.20;;;;;;;18.06;53.03;99099.60;1683240;85;21046;-81
2022/10/02 10:56:45;;;;;;;3.25;1.07;;;;;;;18.03;54.05;99102.86;1677654;85;21002;-84
2022/10/02 10:59:41;;;;;;;2.85;1.30;;;;;;;17.84;52.05;99101.23;1677081;85;20989;-83
2022/10/02 11:02:30;;;;;;;3.05;1.55;;;;;;;17.89;53.12;99099.68;1684531;85;20966;-81
2022/10/02 11:05:28;;;;;;;4.83;2.12;;;;;;;17.86;53.52;99091.95;1640875;86;21025;-87
2022/10/02 11:08:47;;;;;;;1.80;1.17;;;;;;;17.85;53.29;99087.16;1631425;86;21517;-83
2022/10/02 11:11:22;;;;;;;1.87;1.07;;;;;;;17.75;53.72;99078.53;1645086;87;21542;-82
2022/10/02 11:14:01;;;;;;;3.40;1.70;;;;;;;17.76;52.76;99077.58;1638244;86;21030;-84
2022/10/02 11:17:03;;;;;;;1.75;1.05;;;;;;;17.96;53.96;99085.71;1629894;86;21006;-80
2022/10/02 11:19:53;;;;;;;1.80;1.10;;;;;;;18.20;53.98;99073.80;1648316;86;21583;-80
2022/10/02 11:22:53;;;;;;;1.45;0.98;;;;;;;18.22;52.67;99076.35;1642815;86;21026;-80
2022/10/02 11:25:44;;;;;;;2.92;1.15;;;;;;;18.19;52.62;99089.22;1653209;86;21091;-80
2022/10/02 11:28:58;;;;;;;2.35;1.02;;;;;;;18.06;52.03;99089.08;1652163;86;21006;-81
2022/10/02 11:32:01;;;;;;;1.12;0.80;;;;;;;18.19;51.94;99085.28;1642262;86;21046;-81
2022/10/02 11:35:19;;;;;;;1.92;1.00;;;;;;;18.60;50.77;99076.80;1651883;86;21050;-81
2022/10/02 11:37:54;;;;;;;1.67;1.05;;;;;;;18.77;50.48;99080.22;1651266;86;21011;-81
2022/10/02 11:40:58;;;;;;;1.17;1.00;;;;;;;18.89;49.82;99088.73;1674635;85;20986;-81
2022/10/02 11:43:36;;;;;;;1.95;1.57;;;;;;;18.85;50.79;99074.89;1686580;85;21038;-80
2022/10/02 11:46:27;;;;;;;1.47;1.00;;;;;;;19.20;50.88;99075.89;1689584;85;21037;-83
2022/10/02 11:49:00;;;;;;;2.95;1.00;;;;;;;19.20;48.85;99059.20;1622415;87;21042;-82
2022/10/02 11:52:08;;;;;;;2.45;1.00;;;;;;;19.26;49.68;99066.77;1646147;87;21015;-80
2022/10/02 11:55:04;;;;;;;4.83;1.20;;;;;;;19.23;50.31;99062.98;1639303;86;21069;-81
2022/10/02 11:57:59;;;;;;;1.72;1.00;;;;;;;19.28;51.59;99059.62;1688885;85;21013;-79
2022/10/02 12:00:55;;;;;;;1.12;1.00;;;;;;;19.45;51.40;99043.58;1677217;85;21474;-81
2022/10/02 12:03:57;;;;;;;2.90;1.10;;;;;;;19.28;51.69;99054.34;1648857;86;20984;-80
2022/10/02 12:07:04;;;;;;;2.95;1.20;;;;;;;19.15;51.26;99044.17;1621139;86;21487;-83
2022/10/02 12:10:15;;;;;;;2.77;1.30;;;;;;;18.96;51.34;99048.37;1673913;85;21029;-78
2022/10/02 12:13:03;;;;;;;3.92;1.60;;;;;;;18.93;52.01;99049.42;1669286;85;21066;-82
2022/10/02 12:15:39;;;;;;;2.85;1.40;;;;;;;18.94;52.71;99040.59;1676446;85;21025;-80
2022/10/02 12:18:17;;;;;;;2.27;1.15;;;;;;;19.04;51.31;99040.89;1664735;86;21022;-80
2022/10/02 12:27:11;;;;;;;3.75;1.37;;;;;;;19.04;51.62;99046.16;1666328;86;20990;-79
2022/10/02 12:30:05;;;;;;;2.15;1.00;;;;;;;19.13;49.69;99040.78;1663185;86;21027;-80
2022/10/02 12:33:07;;;;;;;1.00;0.80;;;;;;;18.96;48.58;99036.52;1659114;85;20985;-80
2022/10/02 12:35:45;;;;;;;2.40;1.02;;;;;;;18.95;49.85;99028.26;1672564;85;20973;-80
2022/10/02 12:38:54;;;;;;;3.00;1.10;;;;;;;18.96;49.42;99028.17;1658083;86;21006;-79
2022/10/02 12:41:59;;;;;;;1.17;0.72;;;;;;;19.01;49.63;99025.25;1661130;86;21062;-79
2022/10/02 12:45:07;;;;;;;1.07;0.80;;;;;;;19.28;49.25;99014.33;1650904;86;21027;-81
2022/10/02 12:47:51;;;;;;;3.15;1.05;;;;;;;19.86;48.40;99014.25;1659790;86;21063;-80
2022/10/02 12:50:53;;;;;;;2.25;1.05;;;;;;;20.28;48.42;99008.42;1674442;85;20994;-80
2022/10/02 12:54:04;;;;;;;4.45;0.93;;;;;;;20.32;46.07;99012.55;1666585;86;21057;-80
2022/10/02 12:56:53;;;;;;;2.08;1.10;;;;;;;20.11;46.64;99005.56;1622099;85;21609;-80
2022/10/02 12:59:57;;;;;;;2.58;1.02;;;;;;;19.61;46.52;99003.06;1661824;86;21550;-79
2022/10/02 13:03:13;;;;;;;1.57;1.05;;;;;;;19.60;48.91;99007.50;1666067;85;21014;-80
2022/10/02 13:06:06;;;;;;;2.30;1.25;;;;;;;19.50;49.27;99009.48;1593319;86;21026;-80
2022/10/02 13:08:40;;;;;;;2.60;1.10;;;;;;;19.18;50.89;99001.35;1662031;86;21015;-81
2022/10/02 13:11:34;;;;;;;2.02;1.00;;;;;;;19.07;49.67;98998.52;1679062;85;20957;-79
2022/10/02 13:14:16;;;;;;;1.52;1.00;;;;;;;18.90;49.43;99000.02;1663732;86;21034;-79
2022/10/02 13:17:04;;;;;;;3.02;0.98;;;;;;;18.90;49.81;99000.02;1655387;86;21531;-81